sensor_id;sensor_type;location;lat;lon;timestamp;P1;durP1;ratioP1;P2;durP2;ratioP2
68050;SDS011;54839;51.364;7.246;2022-07-29T00:02:01;6.67;;;2.03;;
68050;SDS011;54839;51.364;7.246;2022-07-29T00:04:27;3.27;;;1.67;;
68050;SDS011;54839;51.364;7.246;2022-07-29T00:06:53;3.63;;;1.83;;
68050;SDS011;54839;51.364;7.246;2022-07-29T00:09:18;2.97;;;1.50;;
68050;SDS011;54839;51.364;7.246;2022-07-29T00:11:44;6.47;;;2.00;;
68050;SDS011;54839;51.364;7.246;2022-07-29T00:14:10;2.70;;;1.40;;
68050;SDS011;54839;51.364;7.246;2022-07-29T00:16:35;8.47;;;2.70;;
68050;SDS011;54839;51.364;7.246;2022-07-29T00:19:01;2.97;;;1.80;;
68050;SDS011;54839;51.364;7.246;2022-07-29T00:21:28;3.27;;;1.57;;
68050;SDS011;54839;51.364;7.246;2022-07-29T00:23:53;4.30;;;1.90;;
68050;SDS011;54839;51.364;7.246;2022-07-29T00:26:19;5.03;;;1.70;;
68050;SDS011;54839;51.364;7.246;2022-07-29T00:28:45;4.07;;;1.63;;
68050;SDS011;54839;51.364;7.246;2022-07-29T00:31:10;4.80;;;1.60;;
68050;SDS011;54839;51.364;7.246;2022-07-29T00:33:37;2.53;;;1.40;;
68050;SDS011;54839;51.364;7.246;2022-07-29T00:36:02;4.00;;;1.50;;
68050;SDS011;54839;51.364;7.246;2022-07-29T00:38:28;2.80;;;2.00;;
68050;SDS011;54839;51.364;7.246;2022-07-29T00:40:54;3.60;;;1.60;;
68050;SDS011;54839;51.364;7.246;2022-07-29T00:43:20;7.53;;;2.03;;
68050;SDS011;54839;51.364;7.246;2022-07-29T00:45:45;5.30;;;1.80;;
68050;SDS011;54839;51.364;7.246;2022-07-29T00:48:11;4.30;;;1.87;;
68050;SDS011;54839;51.364;7.246;2022-07-29T00:50:37;4.63;;;2.47;;
68050;SDS011;54839;51.364;7.246;2022-07-29T00:53:03;3.77;;;1.90;;
68050;SDS011;54839;51.364;7.246;2022-07-29T00:55:31;2.90;;;1.90;;
68050;SDS011;54839;51.364;7.246;2022-07-29T00:57:56;5.30;;;1.70;;
68050;SDS011;54839;51.364;7.246;2022-07-29T01:00:24;3.73;;;1.80;;
68050;SDS011;54839;51.364;7.246;2022-07-29T01:02:51;2.03;;;1.50;;
68050;SDS011;54839;51.364;7.246;2022-07-29T01:05:17;3.53;;;1.57;;
68050;SDS011;54839;51.364;7.246;2022-07-29T01:07:47;3.03;;;1.50;;
68050;SDS011;54839;51.364;7.246;2022-07-29T01:10:16;3.37;;;1.90;;
68050;SDS011;54839;51.364;7.246;2022-07-29T01:12:45;2.13;;;1.50;;
68050;SDS011;54839;51.364;7.246;2022-07-29T01:15:13;2.57;;;1.40;;
68050;SDS011;54839;51.364;7.246;2022-07-29T01:17:48;2.13;;;1.50;;
68050;SDS011;54839;51.364;7.246;2022-07-29T01:20:30;3.30;;;1.93;;
68050;SDS011;54839;51.364;7.246;2022-07-29T01:31:19;6.50;;;2.30;;
68050;SDS011;54839;51.364;7.246;2022-07-29T01:33:55;5.43;;;2.13;;
68050;SDS011;54839;51.364;7.246;2022-07-29T01:39:02;1.97;;;1.53;;
68050;SDS011;54839;51.364;7.246;2022-07-29T01:41:30;3.57;;;1.60;;
68050;SDS011;54839;51.364;7.246;2022-07-29T01:43:59;6.50;;;1.80;;
68050;SDS011;54839;51.364;7.246;2022-07-29T01:46:49;1.90;;;1.70;;
68050;SDS011;54839;51.364;7.246;2022-07-29T01:49:24;12.10;;;3.30;;
68050;SDS011;54839;51.364;7.246;2022-07-29T01:51:54;2.80;;;1.73;;
68050;SDS011;54839;51.364;7.246;2022-07-29T01:54:30;6.07;;;1.47;;
68050;SDS011;54839;51.364;7.246;2022-07-29T01:57:00;3.37;;;1.93;;
68050;SDS011;54839;51.364;7.246;2022-07-29T01:59:29;2.50;;;2.03;;
68050;SDS011;54839;51.364;7.246;2022-07-29T02:01:57;7.00;;;2.17;;
68050;SDS011;54839;51.364;7.246;2022-07-29T02:04:23;3.33;;;2.03;;
68050;SDS011;54839;51.364;7.246;2022-07-29T02:06:51;3.63;;;2.57;;
68050;SDS011;54839;51.364;7.246;2022-07-29T02:09:19;9.03;;;1.70;;
68050;SDS011;54839;51.364;7.246;2022-07-29T02:11:48;10.27;;;2.07;;
68050;SDS011;54839;51.364;7.246;2022-07-29T02:14:17;3.50;;;2.00;;
68050;SDS011;54839;51.364;7.246;2022-07-29T02:16:45;3.80;;;1.97;;
68050;SDS011;54839;51.364;7.246;2022-07-29T02:19:14;5.00;;;2.10;;
68050;SDS011;54839;51.364;7.246;2022-07-29T02:21:42;4.10;;;1.87;;
68050;SDS011;54839;51.364;7.246;2022-07-29T02:24:09;4.57;;;2.47;;
68050;SDS011;54839;51.364;7.246;2022-07-29T02:26:37;2.90;;;1.97;;
68050;SDS011;54839;51.364;7.246;2022-07-29T02:29:06;4.97;;;1.80;;
68050;SDS011;54839;51.364;7.246;2022-07-29T02:31:34;3.47;;;1.70;;
68050;SDS011;54839;51.364;7.246;2022-07-29T02:34:03;3.00;;;1.83;;
68050;SDS011;54839;51.364;7.246;2022-07-29T02:36:31;11.40;;;2.60;;
68050;SDS011;54839;51.364;7.246;2022-07-29T02:38:58;4.60;;;1.83;;
68050;SDS011;54839;51.364;7.246;2022-07-29T02:41:27;5.87;;;2.20;;
68050;SDS011;54839;51.364;7.246;2022-07-29T02:43:54;4.20;;;1.60;;
68050;SDS011;54839;51.364;7.246;2022-07-29T02:46:26;4.23;;;2.63;;
68050;SDS011;54839;51.364;7.246;2022-07-29T02:52:00;4.00;;;2.63;;
68050;SDS011;54839;51.364;7.246;2022-07-29T02:54:33;4.67;;;2.20;;
68050;SDS011;54839;51.364;7.246;2022-07-29T02:57:09;3.73;;;1.77;;
68050;SDS011;54839;51.364;7.246;2022-07-29T02:59:47;7.17;;;2.30;;
68050;SDS011;54839;51.364;7.246;2022-07-29T03:02:17;4.63;;;1.80;;
68050;SDS011;54839;51.364;7.246;2022-07-29T03:04:44;6.20;;;1.90;;
68050;SDS011;54839;51.364;7.246;2022-07-29T03:07:13;1.93;;;1.60;;
68050;SDS011;54839;51.364;7.246;2022-07-29T03:09:40;4.23;;;1.80;;
68050;SDS011;54839;51.364;7.246;2022-07-29T03:12:07;6.63;;;2.20;;
68050;SDS011;54839;51.364;7.246;2022-07-29T03:14:33;3.97;;;2.33;;
68050;SDS011;54839;51.364;7.246;2022-07-29T03:17:00;7.77;;;2.03;;
68050;SDS011;54839;51.364;7.246;2022-07-29T03:19:27;10.70;;;2.60;;
68050;SDS011;54839;51.364;7.246;2022-07-29T03:21:55;6.63;;;2.70;;
68050;SDS011;54839;51.364;7.246;2022-07-29T03:24:25;4.50;;;2.23;;
68050;SDS011;54839;51.364;7.246;2022-07-29T03:26:54;5.97;;;2.20;;
68050;SDS011;54839;51.364;7.246;2022-07-29T03:29:20;7.23;;;2.50;;
68050;SDS011;54839;51.364;7.246;2022-07-29T03:31:46;4.50;;;2.10;;
68050;SDS011;54839;51.364;7.246;2022-07-29T03:34:11;3.23;;;2.60;;
68050;SDS011;54839;51.364;7.246;2022-07-29T03:36:37;3.97;;;1.90;;
68050;SDS011;54839;51.364;7.246;2022-07-29T03:39:02;2.27;;;1.63;;
68050;SDS011;54839;51.364;7.246;2022-07-29T03:41:29;5.77;;;2.40;;
68050;SDS011;54839;51.364;7.246;2022-07-29T03:43:56;4.87;;;3.23;;
68050;SDS011;54839;51.364;7.246;2022-07-29T03:46:23;4.63;;;2.93;;
68050;SDS011;54839;51.364;7.246;2022-07-29T03:48:52;4.57;;;2.10;;
68050;SDS011;54839;51.364;7.246;2022-07-29T03:51:23;2.87;;;1.70;;
68050;SDS011;54839;51.364;7.246;2022-07-29T03:53:50;9.77;;;1.93;;
68050;SDS011;54839;51.364;7.246;2022-07-29T03:56:16;4.60;;;1.80;;
68050;SDS011;54839;51.364;7.246;2022-07-29T03:58:45;4.37;;;2.17;;
68050;SDS011;54839;51.364;7.246;2022-07-29T04:01:12;5.00;;;1.70;;
68050;SDS011;54839;51.364;7.246;2022-07-29T04:03:40;3.00;;;1.80;;
68050;SDS011;54839;51.364;7.246;2022-07-29T04:06:06;5.43;;;2.33;;
68050;SDS011;54839;51.364;7.246;2022-07-29T04:08:32;5.57;;;2.40;;
68050;SDS011;54839;51.364;7.246;2022-07-29T04:10:59;5.30;;;2.40;;
68050;SDS011;54839;51.364;7.246;2022-07-29T04:13:26;2.73;;;2.37;;
68050;SDS011;54839;51.364;7.246;2022-07-29T04:15:51;3.53;;;2.07;;
68050;SDS011;54839;51.364;7.246;2022-07-29T04:18:17;2.70;;;2.50;;
68050;SDS011;54839;51.364;7.246;2022-07-29T04:20:43;4.67;;;2.20;;
68050;SDS011;54839;51.364;7.246;2022-07-29T04:23:08;7.30;;;2.70;;
68050;SDS011;54839;51.364;7.246;2022-07-29T04:25:38;8.70;;;2.40;;
68050;SDS011;54839;51.364;7.246;2022-07-29T04:28:04;8.77;;;4.17;;
68050;SDS011;54839;51.364;7.246;2022-07-29T04:30:31;7.97;;;2.00;;
68050;SDS011;54839;51.364;7.246;2022-07-29T04:32:58;6.80;;;2.80;;
68050;SDS011;54839;51.364;7.246;2022-07-29T04:35:26;4.70;;;1.93;;
68050;SDS011;54839;51.364;7.246;2022-07-29T04:37:52;6.37;;;1.73;;
68050;SDS011;54839;51.364;7.246;2022-07-29T04:40:17;5.70;;;2.20;;
68050;SDS011;54839;51.364;7.246;2022-07-29T04:42:43;4.30;;;2.17;;
68050;SDS011;54839;51.364;7.246;2022-07-29T04:45:09;3.03;;;2.30;;
68050;SDS011;54839;51.364;7.246;2022-07-29T04:47:35;5.70;;;2.00;;
68050;SDS011;54839;51.364;7.246;2022-07-29T04:50:01;4.73;;;2.40;;
68050;SDS011;54839;51.364;7.246;2022-07-29T04:52:27;2.97;;;1.90;;
68050;SDS011;54839;51.364;7.246;2022-07-29T04:54:52;3.27;;;2.30;;
68050;SDS011;54839;51.364;7.246;2022-07-29T04:57:18;5.67;;;1.93;;
68050;SDS011;54839;51.364;7.246;2022-07-29T04:59:44;3.07;;;1.50;;
68050;SDS011;54839;51.364;7.246;2022-07-29T05:02:09;6.57;;;2.20;;
68050;SDS011;54839;51.364;7.246;2022-07-29T05:04:35;5.20;;;2.20;;
68050;SDS011;54839;51.364;7.246;2022-07-29T05:07:01;4.63;;;2.70;;
68050;SDS011;54839;51.364;7.246;2022-07-29T05:09:26;6.80;;;2.60;;
68050;SDS011;54839;51.364;7.246;2022-07-29T05:11:52;7.03;;;2.40;;
68050;SDS011;54839;51.364;7.246;2022-07-29T05:14:18;5.87;;;2.30;;
68050;SDS011;54839;51.364;7.246;2022-07-29T05:16:43;5.10;;;1.90;;
68050;SDS011;54839;51.364;7.246;2022-07-29T05:19:09;4.03;;;2.50;;
68050;SDS011;54839;51.364;7.246;2022-07-29T05:21:35;6.83;;;2.63;;
68050;SDS011;54839;51.364;7.246;2022-07-29T05:24:00;3.17;;;1.90;;
68050;SDS011;54839;51.364;7.246;2022-07-29T05:26:26;4.43;;;2.60;;
68050;SDS011;54839;51.364;7.246;2022-07-29T05:28:52;3.30;;;2.03;;
68050;SDS011;54839;51.364;7.246;2022-07-29T05:31:18;5.13;;;2.40;;
68050;SDS011;54839;51.364;7.246;2022-07-29T05:33:44;4.17;;;2.10;;
68050;SDS011;54839;51.364;7.246;2022-07-29T05:36:10;2.30;;;1.83;;
68050;SDS011;54839;51.364;7.246;2022-07-29T05:38:36;4.40;;;2.10;;
68050;SDS011;54839;51.364;7.246;2022-07-29T05:41:03;3.67;;;2.33;;
68050;SDS011;54839;51.364;7.246;2022-07-29T05:43:30;12.53;;;3.90;;
68050;SDS011;54839;51.364;7.246;2022-07-29T05:45:55;4.53;;;2.00;;
68050;SDS011;54839;51.364;7.246;2022-07-29T05:48:21;9.43;;;3.07;;
68050;SDS011;54839;51.364;7.246;2022-07-29T05:50:47;5.40;;;2.17;;
68050;SDS011;54839;51.364;7.246;2022-07-29T05:53:13;7.00;;;2.37;;
68050;SDS011;54839;51.364;7.246;2022-07-29T05:55:39;7.37;;;3.10;;
68050;SDS011;54839;51.364;7.246;2022-07-29T05:58:04;6.30;;;2.57;;
68050;SDS011;54839;51.364;7.246;2022-07-29T06:00:30;3.90;;;1.97;;
68050;SDS011;54839;51.364;7.246;2022-07-29T06:02:56;6.90;;;2.23;;
68050;SDS011;54839;51.364;7.246;2022-07-29T06:05:24;7.30;;;1.97;;
68050;SDS011;54839;51.364;7.246;2022-07-29T06:07:50;4.07;;;2.43;;
68050;SDS011;54839;51.364;7.246;2022-07-29T06:10:18;7.33;;;4.40;;
68050;SDS011;54839;51.364;7.246;2022-07-29T06:12:44;8.50;;;2.80;;
68050;SDS011;54839;51.364;7.246;2022-07-29T06:15:09;3.90;;;3.10;;
68050;SDS011;54839;51.364;7.246;2022-07-29T06:17:35;10.73;;;3.87;;
68050;SDS011;54839;51.364;7.246;2022-07-29T06:20:01;8.60;;;3.37;;
68050;SDS011;54839;51.364;7.246;2022-07-29T06:22:27;5.30;;;4.00;;
68050;SDS011;54839;51.364;7.246;2022-07-29T06:24:53;8.77;;;3.50;;
68050;SDS011;54839;51.364;7.246;2022-07-29T06:27:19;11.93;;;2.83;;
68050;SDS011;54839;51.364;7.246;2022-07-29T06:29:45;4.80;;;3.17;;
68050;SDS011;54839;51.364;7.246;2022-07-29T06:32:10;5.70;;;3.07;;
68050;SDS011;54839;51.364;7.246;2022-07-29T06:34:36;5.27;;;2.87;;
68050;SDS011;54839;51.364;7.246;2022-07-29T06:37:08;5.53;;;3.30;;
68050;SDS011;54839;51.364;7.246;2022-07-29T06:39:37;6.47;;;4.40;;
68050;SDS011;54839;51.364;7.246;2022-07-29T06:42:06;11.47;;;4.90;;
68050;SDS011;54839;51.364;7.246;2022-07-29T06:44:32;7.60;;;6.83;;
68050;SDS011;54839;51.364;7.246;2022-07-29T06:47:00;7.63;;;5.07;;
68050;SDS011;54839;51.364;7.246;2022-07-29T06:49:27;3.50;;;2.83;;
68050;SDS011;54839;51.364;7.246;2022-07-29T06:51:53;6.77;;;4.00;;
68050;SDS011;54839;51.364;7.246;2022-07-29T06:54:19;10.50;;;5.57;;
68050;SDS011;54839;51.364;7.246;2022-07-29T06:56:48;6.70;;;3.50;;
68050;SDS011;54839;51.364;7.246;2022-07-29T06:59:14;6.30;;;4.53;;
68050;SDS011;54839;51.364;7.246;2022-07-29T07:01:41;8.93;;;5.37;;
68050;SDS011;54839;51.364;7.246;2022-07-29T07:04:08;7.30;;;3.30;;
68050;SDS011;54839;51.364;7.246;2022-07-29T07:06:34;5.83;;;4.00;;
68050;SDS011;54839;51.364;7.246;2022-07-29T07:09:00;7.93;;;3.60;;
68050;SDS011;54839;51.364;7.246;2022-07-29T07:11:26;5.07;;;3.77;;
68050;SDS011;54839;51.364;7.246;2022-07-29T07:13:52;5.60;;;4.20;;
68050;SDS011;54839;51.364;7.246;2022-07-29T07:16:18;14.63;;;3.97;;
68050;SDS011;54839;51.364;7.246;2022-07-29T07:18:44;5.90;;;3.10;;
68050;SDS011;54839;51.364;7.246;2022-07-29T07:21:10;5.73;;;2.87;;
68050;SDS011;54839;51.364;7.246;2022-07-29T07:23:37;6.50;;;3.30;;
68050;SDS011;54839;51.364;7.246;2022-07-29T07:26:03;5.87;;;3.07;;
68050;SDS011;54839;51.364;7.246;2022-07-29T07:28:30;6.53;;;2.80;;
68050;SDS011;54839;51.364;7.246;2022-07-29T07:30:56;3.60;;;3.03;;
68050;SDS011;54839;51.364;7.246;2022-07-29T07:33:22;5.97;;;3.07;;
68050;SDS011;54839;51.364;7.246;2022-07-29T07:35:48;9.57;;;3.33;;
68050;SDS011;54839;51.364;7.246;2022-07-29T07:38:13;4.77;;;2.97;;
68050;SDS011;54839;51.364;7.246;2022-07-29T07:40:39;6.33;;;3.27;;
68050;SDS011;54839;51.364;7.246;2022-07-29T07:43:05;6.60;;;2.80;;
68050;SDS011;54839;51.364;7.246;2022-07-29T07:45:31;7.43;;;3.13;;
68050;SDS011;54839;51.364;7.246;2022-07-29T07:48:02;4.73;;;3.60;;
68050;SDS011;54839;51.364;7.246;2022-07-29T07:50:28;7.57;;;3.03;;
68050;SDS011;54839;51.364;7.246;2022-07-29T07:52:54;5.90;;;2.60;;
68050;SDS011;54839;51.364;7.246;2022-07-29T07:55:23;13.40;;;4.10;;
68050;SDS011;54839;51.364;7.246;2022-07-29T07:57:49;6.27;;;3.23;;
68050;SDS011;54839;51.364;7.246;2022-07-29T08:00:16;8.30;;;3.30;;
68050;SDS011;54839;51.364;7.246;2022-07-29T08:02:42;9.80;;;3.70;;
68050;SDS011;54839;51.364;7.246;2022-07-29T08:05:08;4.83;;;2.97;;
68050;SDS011;54839;51.364;7.246;2022-07-29T08:07:34;4.60;;;3.53;;
68050;SDS011;54839;51.364;7.246;2022-07-29T08:10:00;9.50;;;3.77;;
68050;SDS011;54839;51.364;7.246;2022-07-29T08:12:26;5.23;;;4.10;;
68050;SDS011;54839;51.364;7.246;2022-07-29T08:14:51;6.03;;;2.90;;
68050;SDS011;54839;51.364;7.246;2022-07-29T08:17:17;7.10;;;3.93;;
68050;SDS011;54839;51.364;7.246;2022-07-29T08:19:43;7.17;;;4.67;;
68050;SDS011;54839;51.364;7.246;2022-07-29T08:22:09;8.77;;;3.27;;
68050;SDS011;54839;51.364;7.246;2022-07-29T08:24:34;9.87;;;3.20;;
68050;SDS011;54839;51.364;7.246;2022-07-29T08:27:12;6.53;;;2.67;;
68050;SDS011;54839;51.364;7.246;2022-07-29T08:29:38;4.70;;;2.90;;
68050;SDS011;54839;51.364;7.246;2022-07-29T08:32:05;5.40;;;2.70;;
68050;SDS011;54839;51.364;7.246;2022-07-29T08:34:31;6.30;;;2.77;;
68050;SDS011;54839;51.364;7.246;2022-07-29T08:36:57;5.80;;;2.90;;
68050;SDS011;54839;51.364;7.246;2022-07-29T08:39:23;10.73;;;2.63;;
68050;SDS011;54839;51.364;7.246;2022-07-29T08:41:49;3.80;;;2.60;;
68050;SDS011;54839;51.364;7.246;2022-07-29T08:44:19;6.47;;;3.00;;
68050;SDS011;54839;51.364;7.246;2022-07-29T08:46:46;11.67;;;3.33;;
68050;SDS011;54839;51.364;7.246;2022-07-29T08:49:14;3.30;;;2.47;;
68050;SDS011;54839;51.364;7.246;2022-07-29T08:51:40;11.60;;;3.60;;
68050;SDS011;54839;51.364;7.246;2022-07-29T08:54:08;8.23;;;3.60;;
68050;SDS011;54839;51.364;7.246;2022-07-29T08:56:35;6.20;;;2.90;;
68050;SDS011;54839;51.364;7.246;2022-07-29T08:59:05;4.17;;;2.53;;
68050;SDS011;54839;51.364;7.246;2022-07-29T09:01:33;3.70;;;2.87;;
68050;SDS011;54839;51.364;7.246;2022-07-29T09:04:03;3.70;;;2.30;;
68050;SDS011;54839;51.364;7.246;2022-07-29T09:06:31;3.37;;;2.23;;
68050;SDS011;54839;51.364;7.246;2022-07-29T09:08:59;6.10;;;2.83;;
68050;SDS011;54839;51.364;7.246;2022-07-29T09:11:26;7.93;;;3.27;;
68050;SDS011;54839;51.364;7.246;2022-07-29T09:13:52;4.87;;;2.97;;
68050;SDS011;54839;51.364;7.246;2022-07-29T09:16:17;3.70;;;2.60;;
68050;SDS011;54839;51.364;7.246;2022-07-29T09:18:44;9.70;;;3.63;;
68050;SDS011;54839;51.364;7.246;2022-07-29T09:21:12;6.50;;;3.43;;
68050;SDS011;54839;51.364;7.246;2022-07-29T09:26:34;6.27;;;3.23;;
68050;SDS011;54839;51.364;7.246;2022-07-29T09:29:08;3.67;;;2.90;;
68050;SDS011;54839;51.364;7.246;2022-07-29T09:31:43;8.10;;;3.00;;
68050;SDS011;54839;51.364;7.246;2022-07-29T09:34:14;10.47;;;3.80;;
68050;SDS011;54839;51.364;7.246;2022-07-29T09:36:43;2.67;;;2.00;;
68050;SDS011;54839;51.364;7.246;2022-07-29T09:39:10;5.00;;;2.80;;
68050;SDS011;54839;51.364;7.246;2022-07-29T09:41:47;7.40;;;2.80;;
68050;SDS011;54839;51.364;7.246;2022-07-29T09:44:14;7.77;;;3.77;;
68050;SDS011;54839;51.364;7.246;2022-07-29T09:46:52;12.27;;;2.70;;
68050;SDS011;54839;51.364;7.246;2022-07-29T09:49:31;6.53;;;3.03;;
68050;SDS011;54839;51.364;7.246;2022-07-29T09:51:59;6.53;;;3.60;;
68050;SDS011;54839;51.364;7.246;2022-07-29T09:54:28;5.33;;;3.03;;
68050;SDS011;54839;51.364;7.246;2022-07-29T09:56:59;6.60;;;2.87;;
68050;SDS011;54839;51.364;7.246;2022-07-29T09:59:24;4.90;;;2.90;;
68050;SDS011;54839;51.364;7.246;2022-07-29T10:01:51;8.30;;;2.90;;
68050;SDS011;54839;51.364;7.246;2022-07-29T10:04:18;6.50;;;3.57;;
68050;SDS011;54839;51.364;7.246;2022-07-29T10:06:59;3.83;;;3.40;;
68050;SDS011;54839;51.364;7.246;2022-07-29T10:09:27;8.27;;;3.57;;
68050;SDS011;54839;51.364;7.246;2022-07-29T10:12:12;3.47;;;3.17;;
68050;SDS011;54839;51.364;7.246;2022-07-29T10:14:39;5.80;;;3.23;;
68050;SDS011;54839;51.364;7.246;2022-07-29T10:17:06;8.73;;;3.07;;
68050;SDS011;54839;51.364;7.246;2022-07-29T10:19:34;4.73;;;3.13;;
68050;SDS011;54839;51.364;7.246;2022-07-29T10:22:02;6.43;;;2.93;;
68050;SDS011;54839;51.364;7.246;2022-07-29T10:24:30;5.50;;;3.20;;
68050;SDS011;54839;51.364;7.246;2022-07-29T10:26:58;4.80;;;4.00;;
68050;SDS011;54839;51.364;7.246;2022-07-29T10:29:26;7.07;;;3.13;;
68050;SDS011;54839;51.364;7.246;2022-07-29T10:34:46;4.90;;;3.10;;
68050;SDS011;54839;51.364;7.246;2022-07-29T10:37:46;19.00;;;6.13;;
68050;SDS011;54839;51.364;7.246;2022-07-29T10:43:47;8.43;;;3.40;;
68050;SDS011;54839;51.364;7.246;2022-07-29T10:46:14;11.60;;;3.13;;
68050;SDS011;54839;51.364;7.246;2022-07-29T10:51:54;9.33;;;5.00;;
68050;SDS011;54839;51.364;7.246;2022-07-29T10:59:37;6.03;;;3.73;;
68050;SDS011;54839;51.364;7.246;2022-07-29T11:02:03;7.90;;;3.57;;
68050;SDS011;54839;51.364;7.246;2022-07-29T11:07:24;11.50;;;4.40;;
68050;SDS011;54839;51.364;7.246;2022-07-29T11:31:40;5.50;;;3.57;;
68050;SDS011;54839;51.364;7.246;2022-07-29T11:39:32;6.70;;;3.60;;
68050;SDS011;54839;51.364;7.246;2022-07-29T11:47:22;8.00;;;3.93;;
68050;SDS011;54839;51.364;7.246;2022-07-29T11:49:53;6.40;;;4.00;;
68050;SDS011;54839;51.364;7.246;2022-07-29T11:52:21;12.40;;;3.87;;
68050;SDS011;54839;51.364;7.246;2022-07-29T11:54:47;9.67;;;4.87;;
68050;SDS011;54839;51.364;7.246;2022-07-29T11:57:17;10.10;;;4.23;;
68050;SDS011;54839;51.364;7.246;2022-07-29T11:59:45;8.40;;;5.20;;
68050;SDS011;54839;51.364;7.246;2022-07-29T12:02:12;8.70;;;4.40;;
68050;SDS011;54839;51.364;7.246;2022-07-29T12:07:31;6.43;;;4.87;;
68050;SDS011;54839;51.364;7.246;2022-07-29T12:09:58;8.00;;;5.13;;
68050;SDS011;54839;51.364;7.246;2022-07-29T12:12:24;4.77;;;3.53;;
68050;SDS011;54839;51.364;7.246;2022-07-29T12:14:50;10.53;;;5.80;;
68050;SDS011;54839;51.364;7.246;2022-07-29T12:17:33;18.10;;;4.77;;
68050;SDS011;54839;51.364;7.246;2022-07-29T12:20:03;5.73;;;5.17;;
68050;SDS011;54839;51.364;7.246;2022-07-29T12:22:30;6.03;;;4.63;;
68050;SDS011;54839;51.364;7.246;2022-07-29T12:25:01;8.90;;;4.67;;
68050;SDS011;54839;51.364;7.246;2022-07-29T12:27:32;6.63;;;4.53;;
68050;SDS011;54839;51.364;7.246;2022-07-29T12:29:58;6.70;;;5.37;;
68050;SDS011;54839;51.364;7.246;2022-07-29T12:32:35;7.50;;;4.67;;
68050;SDS011;54839;51.364;7.246;2022-07-29T12:35:06;6.57;;;4.37;;
68050;SDS011;54839;51.364;7.246;2022-07-29T12:37:35;8.87;;;5.27;;
68050;SDS011;54839;51.364;7.246;2022-07-29T12:40:03;9.30;;;5.80;;
68050;SDS011;54839;51.364;7.246;2022-07-29T12:42:30;7.10;;;5.00;;
68050;SDS011;54839;51.364;7.246;2022-07-29T12:44:56;9.40;;;4.63;;
68050;SDS011;54839;51.364;7.246;2022-07-29T12:47:22;12.07;;;6.57;;
68050;SDS011;54839;51.364;7.246;2022-07-29T12:50:11;5.27;;;4.23;;
68050;SDS011;54839;51.364;7.246;2022-07-29T12:52:42;7.83;;;4.67;;
68050;SDS011;54839;51.364;7.246;2022-07-29T12:55:09;10.57;;;4.53;;
68050;SDS011;54839;51.364;7.246;2022-07-29T12:57:47;7.20;;;5.17;;
68050;SDS011;54839;51.364;7.246;2022-07-29T13:00:17;6.20;;;4.90;;
68050;SDS011;54839;51.364;7.246;2022-07-29T13:02:53;9.17;;;4.60;;
68050;SDS011;54839;51.364;7.246;2022-07-29T13:05:20;7.53;;;5.07;;
68050;SDS011;54839;51.364;7.246;2022-07-29T13:07:46;13.67;;;7.50;;
68050;SDS011;54839;51.364;7.246;2022-07-29T13:10:14;6.80;;;5.50;;
68050;SDS011;54839;51.364;7.246;2022-07-29T13:15:31;8.70;;;5.80;;
68050;SDS011;54839;51.364;7.246;2022-07-29T13:17:57;8.70;;;5.67;;
68050;SDS011;54839;51.364;7.246;2022-07-29T13:20:23;6.63;;;4.70;;
68050;SDS011;54839;51.364;7.246;2022-07-29T13:22:52;8.53;;;4.87;;
68050;SDS011;54839;51.364;7.246;2022-07-29T13:25:28;7.60;;;5.30;;
68050;SDS011;54839;51.364;7.246;2022-07-29T13:27:55;7.00;;;4.73;;
68050;SDS011;54839;51.364;7.246;2022-07-29T13:30:21;6.60;;;5.30;;
68050;SDS011;54839;51.364;7.246;2022-07-29T13:32:48;6.23;;;4.20;;
68050;SDS011;54839;51.364;7.246;2022-07-29T13:35:14;10.97;;;4.40;;
68050;SDS011;54839;51.364;7.246;2022-07-29T13:37:40;6.50;;;3.60;;
68050;SDS011;54839;51.364;7.246;2022-07-29T13:40:06;7.03;;;4.10;;
68050;SDS011;54839;51.364;7.246;2022-07-29T13:42:33;10.90;;;5.33;;
68050;SDS011;54839;51.364;7.246;2022-07-29T13:44:59;7.13;;;4.57;;
68050;SDS011;54839;51.364;7.246;2022-07-29T13:47:26;5.83;;;4.20;;
68050;SDS011;54839;51.364;7.246;2022-07-29T13:49:52;6.20;;;4.30;;
68050;SDS011;54839;51.364;7.246;2022-07-29T13:52:18;5.23;;;3.60;;
68050;SDS011;54839;51.364;7.246;2022-07-29T13:54:44;9.50;;;3.87;;
68050;SDS011;54839;51.364;7.246;2022-07-29T13:57:10;9.70;;;3.90;;
68050;SDS011;54839;51.364;7.246;2022-07-29T13:59:36;4.00;;;3.60;;
68050;SDS011;54839;51.364;7.246;2022-07-29T14:02:02;7.53;;;4.60;;
68050;SDS011;54839;51.364;7.246;2022-07-29T14:04:28;6.67;;;4.10;;
68050;SDS011;54839;51.364;7.246;2022-07-29T14:06:54;9.00;;;4.00;;
68050;SDS011;54839;51.364;7.246;2022-07-29T14:09:19;7.33;;;4.47;;
68050;SDS011;54839;51.364;7.246;2022-07-29T14:11:45;7.00;;;4.17;;
68050;SDS011;54839;51.364;7.246;2022-07-29T14:14:12;5.13;;;3.23;;
68050;SDS011;54839;51.364;7.246;2022-07-29T14:16:38;5.60;;;3.80;;
68050;SDS011;54839;51.364;7.246;2022-07-29T14:19:04;6.60;;;4.57;;
68050;SDS011;54839;51.364;7.246;2022-07-29T14:21:29;8.70;;;4.00;;
68050;SDS011;54839;51.364;7.246;2022-07-29T14:23:55;7.30;;;4.30;;
68050;SDS011;54839;51.364;7.246;2022-07-29T14:26:21;6.53;;;3.70;;
68050;SDS011;54839;51.364;7.246;2022-07-29T14:28:50;11.40;;;4.03;;
68050;SDS011;54839;51.364;7.246;2022-07-29T14:31:16;8.10;;;4.63;;
68050;SDS011;54839;51.364;7.246;2022-07-29T14:33:41;8.67;;;6.47;;
68050;SDS011;54839;51.364;7.246;2022-07-29T14:36:07;10.00;;;4.87;;
68050;SDS011;54839;51.364;7.246;2022-07-29T14:38:34;8.63;;;4.30;;
68050;SDS011;54839;51.364;7.246;2022-07-29T14:41:00;7.03;;;4.83;;
68050;SDS011;54839;51.364;7.246;2022-07-29T14:43:26;5.63;;;4.20;;
68050;SDS011;54839;51.364;7.246;2022-07-29T14:45:51;5.70;;;3.73;;
68050;SDS011;54839;51.364;7.246;2022-07-29T14:48:17;5.77;;;4.60;;
68050;SDS011;54839;51.364;7.246;2022-07-29T14:50:43;5.73;;;3.73;;
68050;SDS011;54839;51.364;7.246;2022-07-29T14:53:08;5.47;;;3.70;;
68050;SDS011;54839;51.364;7.246;2022-07-29T14:55:34;9.80;;;4.50;;
68050;SDS011;54839;51.364;7.246;2022-07-29T14:58:00;6.60;;;3.30;;
68050;SDS011;54839;51.364;7.246;2022-07-29T15:00:26;5.43;;;3.93;;
68050;SDS011;54839;51.364;7.246;2022-07-29T15:02:51;6.00;;;3.40;;
68050;SDS011;54839;51.364;7.246;2022-07-29T15:05:17;4.90;;;3.17;;
68050;SDS011;54839;51.364;7.246;2022-07-29T15:07:43;8.37;;;3.40;;
68050;SDS011;54839;51.364;7.246;2022-07-29T15:10:09;7.33;;;3.87;;
68050;SDS011;54839;51.364;7.246;2022-07-29T15:12:34;5.07;;;3.10;;
68050;SDS011;54839;51.364;7.246;2022-07-29T15:15:00;7.67;;;3.57;;
68050;SDS011;54839;51.364;7.246;2022-07-29T15:17:29;5.80;;;3.50;;
68050;SDS011;54839;51.364;7.246;2022-07-29T15:19:54;9.10;;;3.83;;
68050;SDS011;54839;51.364;7.246;2022-07-29T15:22:20;6.03;;;3.50;;
68050;SDS011;54839;51.364;7.246;2022-07-29T15:24:46;4.80;;;3.00;;
68050;SDS011;54839;51.364;7.246;2022-07-29T15:27:11;9.50;;;4.07;;
68050;SDS011;54839;51.364;7.246;2022-07-29T15:29:39;6.23;;;5.03;;
68050;SDS011;54839;51.364;7.246;2022-07-29T15:32:08;5.03;;;3.43;;
68050;SDS011;54839;51.364;7.246;2022-07-29T15:34:34;4.40;;;3.40;;
68050;SDS011;54839;51.364;7.246;2022-07-29T15:37:01;8.03;;;3.07;;
68050;SDS011;54839;51.364;7.246;2022-07-29T15:39:27;5.50;;;3.07;;
68050;SDS011;54839;51.364;7.246;2022-07-29T15:41:53;7.87;;;4.40;;
68050;SDS011;54839;51.364;7.246;2022-07-29T15:44:19;7.30;;;3.90;;
68050;SDS011;54839;51.364;7.246;2022-07-29T15:46:45;4.60;;;3.20;;
68050;SDS011;54839;51.364;7.246;2022-07-29T15:49:30;3.20;;;2.90;;
68050;SDS011;54839;51.364;7.246;2022-07-29T15:52:00;6.73;;;3.43;;
68050;SDS011;54839;51.364;7.246;2022-07-29T15:54:28;3.30;;;2.97;;
68050;SDS011;54839;51.364;7.246;2022-07-29T15:56:54;5.27;;;3.70;;
68050;SDS011;54839;51.364;7.246;2022-07-29T15:59:20;5.80;;;2.87;;
68050;SDS011;54839;51.364;7.246;2022-07-29T16:01:46;6.67;;;2.70;;